sensor_id;sensor_type;location;lat;lon;timestamp;pressure;altitude;pressure_sealevel;temperature;humidity
72570;BME280;60594;50.204;8.844;2024-03-06T00:00:56;100069.44;;;7.78;100.00
72570;BME280;60594;50.204;8.844;2024-03-06T00:03:48;100071.22;;;7.77;100.00
72570;BME280;60594;50.204;8.844;2024-03-06T00:06:33;100076.44;;;7.79;100.00
72570;BME280;60594;50.204;8.844;2024-03-06T00:09:18;100070.25;;;7.78;100.00
72570;BME280;60594;50.204;8.844;2024-03-06T00:12:03;100085.34;;;7.78;100.00
72570;BME280;60594;50.204;8.844;2024-03-06T00:14:50;100089.69;;;7.79;100.00
72570;BME280;60594;50.204;8.844;2024-03-06T00:17:34;100102.09;;;7.78;100.00
72570;BME280;60594;50.204;8.844;2024-03-06T00:20:19;100097.66;;;7.79;100.00
72570;BME280;60594;50.204;8.844;2024-03-06T00:23:04;100103.81;;;7.79;100.00
72570;BME280;60594;50.204;8.844;2024-03-06T00:25:49;100099.56;;;7.77;100.00
72570;BME280;60594;50.204;8.844;2024-03-06T00:28:34;100105.19;;;7.72;100.00
72570;BME280;60594;50.204;8.844;2024-03-06T00:31:18;100106.25;;;7.70;100.00
72570;BME280;60594;50.204;8.844;2024-03-06T00:34:03;100107.31;;;7.67;100.00
72570;BME280;60594;50.204;8.844;2024-03-06T00:36:49;100109.22;;;7.65;100.00
72570;BME280;60594;50.204;8.844;2024-03-06T00:39:35;100117.28;;;7.64;100.00
72570;BME280;60594;50.204;8.844;2024-03-06T00:42:19;100116.31;;;7.65;100.00
72570;BME280;60594;50.204;8.844;2024-03-06T00:45:05;100120.69;;;7.66;100.00
72570;BME280;60594;50.204;8.844;2024-03-06T00:47:50;100122.28;;;7.68;100.00
72570;BME280;60594;50.204;8.844;2024-03-06T00:50:34;100114.53;;;7.65;100.00
72570;BME280;60594;50.204;8.844;2024-03-06T00:53:19;100124.28;;;7.65;100.00
72570;BME280;60594;50.204;8.844;2024-03-06T00:56:07;100122.69;;;7.62;100.00
72570;BME280;60594;50.204;8.844;2024-03-06T00:58:51;100123.75;;;7.60;100.00
72570;BME280;60594;50.204;8.844;2024-03-06T01:01:36;100129.94;;;7.60;100.00
72570;BME280;60594;50.204;8.844;2024-03-06T01:04:22;100129.94;;;7.60;100.00
72570;BME280;60594;50.204;8.844;2024-03-06T01:07:06;100132.69;;;7.59;100.00
72570;BME280;60594;50.204;8.844;2024-03-06T01:09:51;100138.81;;;7.59;100.00
72570;BME280;60594;50.204;8.844;2024-03-06T01:12:37;100134.25;;;7.61;100.00
72570;BME280;60594;50.204;8.844;2024-03-06T01:15:22;100136.06;;;7.61;100.00
72570;BME280;60594;50.204;8.844;2024-03-06T01:18:07;100140.41;;;7.62;100.00
72570;BME280;60594;50.204;8.844;2024-03-06T01:20:53;100141.25;;;7.62;100.00
72570;BME280;60594;50.204;8.844;2024-03-06T01:23:38;100145.59;;;7.63;100.00
72570;BME280;60594;50.204;8.844;2024-03-06T01:26:23;100149.13;;;7.64;100.00
72570;BME280;60594;50.204;8.844;2024-03-06T01:29:08;100140.28;;;7.63;100.00
72570;BME280;60594;50.204;8.844;2024-03-06T01:31:53;100148.34;;;7.62;100.00
72570;BME280;60594;50.204;8.844;2024-03-06T01:34:38;100142.53;;;7.57;100.00
72570;BME280;60594;50.204;8.844;2024-03-06T01:37:23;100141.91;;;7.53;100.00
72570;BME280;60594;50.204;8.844;2024-03-06T01:40:08;100140.28;;;7.51;100.00
72570;BME280;60594;50.204;8.844;2024-03-06T01:42:53;100133.59;;;7.45;100.00
72570;BME280;60594;50.204;8.844;2024-03-06T01:45:39;100135.53;;;7.43;100.00
72570;BME280;60594;50.204;8.844;2024-03-06T01:48:27;100137.66;;;7.38;100.00
72570;BME280;60594;50.204;8.844;2024-03-06T01:51:13;100147.59;;;7.35;100.00
72570;BME280;60594;50.204;8.844;2024-03-06T01:53:59;100146.22;;;7.29;100.00
72570;BME280;60594;50.204;8.844;2024-03-06T01:56:46;100151.72;;;7.26;100.00
72570;BME280;60594;50.204;8.844;2024-03-06T01:59:32;100145.88;;;7.21;100.00
72570;BME280;60594;50.204;8.844;2024-03-06T02:02:17;100148.75;;;7.18;100.00
72570;BME280;60594;50.204;8.844;2024-03-06T02:05:02;100148.94;;;7.15;100.00
72570;BME280;60594;50.204;8.844;2024-03-06T02:07:47;100150.97;;;7.12;100.00
72570;BME280;60594;50.204;8.844;2024-03-06T02:10:32;100147.53;;;7.09;100.00
72570;BME280;60594;50.204;8.844;2024-03-06T02:13:18;100151.06;;;7.10;100.00
72570;BME280;60594;50.204;8.844;2024-03-06T02:16:03;100150.09;;;7.11;100.00
72570;BME280;60594;50.204;8.844;2024-03-06T02:18:55;100148.31;;;7.12;100.00
72570;BME280;60594;50.204;8.844;2024-03-06T02:21:41;100158.81;;;7.13;100.00
72570;BME280;60594;50.204;8.844;2024-03-06T02:24:26;100161.47;;;7.13;100.00
72570;BME280;60594;50.204;8.844;2024-03-06T02:27:11;100158.81;;;7.13;100.00
72570;BME280;60594;50.204;8.844;2024-03-06T02:29:56;100150.97;;;7.12;100.00
72570;BME280;60594;50.204;8.844;2024-03-06T02:32:40;100157.41;;;7.07;100.00
72570;BME280;60594;50.204;8.844;2024-03-06T02:35:25;100158.25;;;7.08;100.00
72570;BME280;60594;50.204;8.844;2024-03-06T02:38:10;100163.53;;;7.08;100.00
72570;BME280;60594;50.204;8.844;2024-03-06T02:40:54;100160.91;;;7.08;100.00
72570;BME280;60594;50.204;8.844;2024-03-06T02:43:39;100159.09;;;7.08;100.00
72570;BME280;60594;50.204;8.844;2024-03-06T02:46:24;100157.50;;;7.06;100.00
72570;BME280;60594;50.204;8.844;2024-03-06T02:49:09;100161.94;;;7.05;100.00
72570;BME280;60594;50.204;8.844;2024-03-06T02:51:54;100160.38;;;7.03;100.00
72570;BME280;60594;50.204;8.844;2024-03-06T02:54:41;100158.78;;;7.00;100.00
72570;BME280;60594;50.204;8.844;2024-03-06T02:57:27;100152.59;;;7.00;100.00
72570;BME280;60594;50.204;8.844;2024-03-06T03:00:13;100153.66;;;6.97;100.00
72570;BME280;60594;50.204;8.844;2024-03-06T03:02:58;100152.81;;;6.97;100.00
72570;BME280;60594;50.204;8.844;2024-03-06T03:05:43;100147.50;;;6.97;100.00
72570;BME280;60594;50.204;8.844;2024-03-06T03:08:28;100158.97;;;6.97;100.00
72570;BME280;60594;50.204;8.844;2024-03-06T03:11:13;100161.63;;;6.97;100.00
72570;BME280;60594;50.204;8.844;2024-03-06T03:13:58;100157.38;;;6.95;100.00
72570;BME280;60594;50.204;8.844;2024-03-06T03:16:44;100159.25;;;6.93;100.00
72570;BME280;60594;50.204;8.844;2024-03-06T03:19:29;100163.16;;;6.87;100.00
72570;BME280;60594;50.204;8.844;2024-03-06T03:22:14;100156.47;;;6.82;100.00
72570;BME280;60594;50.204;8.844;2024-03-06T03:24:59;100155.84;;;6.78;100.00
72570;BME280;60594;50.204;8.844;2024-03-06T03:27:44;100165.56;;;6.78;100.00
72570;BME280;60594;50.204;8.844;2024-03-06T03:30:30;100166.44;;;6.78;100.00
72570;BME280;60594;50.204;8.844;2024-03-06T03:33:16;100172.59;;;6.79;100.00
72570;BME280;60594;50.204;8.844;2024-03-06T03:36:01;100168.13;;;6.79;100.00
72570;BME280;60594;50.204;8.844;2024-03-06T03:38:46;100167.28;;;6.79;100.00
72570;BME280;60594;50.204;8.844;2024-03-06T03:41:31;100169.94;;;6.79;100.00
72570;BME280;60594;50.204;8.844;2024-03-06T03:44:17;100175.81;;;6.70;100.00
72570;BME280;60594;50.204;8.844;2024-03-06T03:47:03;100180.13;;;6.58;100.00
72570;BME280;60594;50.204;8.844;2024-03-06T03:49:48;100181.66;;;6.48;100.00
72570;BME280;60594;50.204;8.844;2024-03-06T03:52:33;100189.22;;;6.40;100.00
72570;BME280;60594;50.204;8.844;2024-03-06T03:55:18;100182.53;;;6.35;100.00
72570;BME280;60594;50.204;8.844;2024-03-06T03:58:04;100185.19;;;6.35;100.00
72570;BME280;60594;50.204;8.844;2024-03-06T04:00:51;100187.34;;;6.28;100.00
72570;BME280;60594;50.204;8.844;2024-03-06T04:03:40;100189.97;;;6.28;100.00
72570;BME280;60594;50.204;8.844;2024-03-06T04:06:27;100188.97;;;6.31;100.00
72570;BME280;60594;50.204;8.844;2024-03-06T04:09:12;100194.25;;;6.31;100.00
72570;BME280;60594;50.204;8.844;2024-03-06T04:11:59;100192.16;;;6.36;100.00
72570;BME280;60594;50.204;8.844;2024-03-06T04:14:44;100193.84;;;6.37;100.00
72570;BME280;60594;50.204;8.844;2024-03-06T04:17:30;100184.13;;;6.37;100.00
72570;BME280;60594;50.204;8.844;2024-03-06T04:20:15;100190.47;;;6.35;100.00
72570;BME280;60594;50.204;8.844;2024-03-06T04:23:00;100189.59;;;6.34;100.00
72570;BME280;60594;50.204;8.844;2024-03-06T04:25:46;100191.41;;;6.34;100.00
72570;BME280;60594;50.204;8.844;2024-03-06T04:28:31;100201.16;;;6.33;100.00
72570;BME280;60594;50.204;8.844;2024-03-06T04:31:17;100207.19;;;6.35;100.00
72570;BME280;60594;50.204;8.844;2024-03-06T04:34:01;100209.81;;;6.35;100.00
72570;BME280;60594;50.204;8.844;2024-03-06T04:36:46;100209.63;;;6.38;100.00
72570;BME280;60594;50.204;8.844;2024-03-06T04:39:32;100204.63;;;6.34;100.00
72570;BME280;60594;50.204;8.844;2024-03-06T04:42:17;100218.72;;;6.34;100.00
72570;BME280;60594;50.204;8.844;2024-03-06T04:45:11;100223.25;;;6.32;100.00
72570;BME280;60594;50.204;8.844;2024-03-06T04:47:57;100223.56;;;6.28;100.00
72570;BME280;60594;50.204;8.844;2024-03-06T04:50:42;100224.38;;;6.28;100.00
72570;BME280;60594;50.204;8.844;2024-03-06T04:53:27;100226.09;;;6.29;100.00
72570;BME280;60594;50.204;8.844;2024-03-06T04:56:12;100225.25;;;6.29;100.00
72570;BME280;60594;50.204;8.844;2024-03-06T04:58:57;100227.97;;;6.27;100.00
72570;BME280;60594;50.204;8.844;2024-03-06T05:01:47;100226.28;;;6.26;100.00
72570;BME280;60594;50.204;8.844;2024-03-06T05:04:32;100226.47;;;6.23;100.00
72570;BME280;60594;50.204;8.844;2024-03-06T05:07:17;100238.94;;;6.21;100.00
72570;BME280;60594;50.204;8.844;2024-03-06T05:10:02;100234.03;;;6.15;100.00
72570;BME280;60594;50.204;8.844;2024-03-06T05:12:47;100241.97;;;6.15;100.00
72570;BME280;60594;50.204;8.844;2024-03-06T05:15:33;100244.16;;;6.09;100.00
72570;BME280;60594;50.204;8.844;2024-03-06T05:18:17;100251.13;;;6.10;100.00
72570;BME280;60594;50.204;8.844;2024-03-06T05:21:03;100252.09;;;6.09;100.00
72570;BME280;60594;50.204;8.844;2024-03-06T05:23:48;100252.63;;;6.00;100.00
72570;BME280;60594;50.204;8.844;2024-03-06T05:26:33;100262.84;;;6.06;100.00
72570;BME280;60594;50.204;8.844;2024-03-06T05:29:19;100272.41;;;6.08;100.00
72570;BME280;60594;50.204;8.844;2024-03-06T05:32:05;100265.41;;;6.07;100.00
72570;BME280;60594;50.204;8.844;2024-03-06T05:34:49;100272.56;;;6.05;100.00
72570;BME280;60594;50.204;8.844;2024-03-06T05:37:35;100265.69;;;6.03;100.00
72570;BME280;60594;50.204;8.844;2024-03-06T05:40:20;100274.56;;;6.02;100.00
72570;BME280;60594;50.204;8.844;2024-03-06T05:43:05;100282.50;;;6.02;100.00
72570;BME280;60594;50.204;8.844;2024-03-06T05:45:50;100287.72;;;6.03;100.00
72570;BME280;60594;50.204;8.844;2024-03-06T05:48:34;100283.50;;;5.99;100.00
72570;BME280;60594;50.204;8.844;2024-03-06T05:51:19;100294.88;;;6.01;100.00
72570;BME280;60594;50.204;8.844;2024-03-06T05:54:04;100287.19;;;5.97;100.00
72570;BME280;60594;50.204;8.844;2024-03-06T05:56:53;100295.22;;;5.95;100.00
72570;BME280;60594;50.204;8.844;2024-03-06T05:59:38;100295.31;;;5.94;100.00
72570;BME280;60594;50.204;8.844;2024-03-06T06:02:24;100305.16;;;5.92;100.00
72570;BME280;60594;50.204;8.844;2024-03-06T06:05:09;100303.47;;;5.91;100.00
72570;BME280;60594;50.204;8.844;2024-03-06T06:07:53;100307.03;;;5.90;100.00
72570;BME280;60594;50.204;8.844;2024-03-06T06:10:38;100313.25;;;5.89;100.00
72570;BME280;60594;50.204;8.844;2024-03-06T06:13:23;100320.34;;;5.88;100.00
72570;BME280;60594;50.204;8.844;2024-03-06T06:16:08;100319.59;;;5.86;100.00
72570;BME280;60594;50.204;8.844;2024-03-06T06:18:53;100321.19;;;5.89;100.00
72570;BME280;60594;50.204;8.844;2024-03-06T06:21:38;100333.28;;;5.93;100.00
72570;BME280;60594;50.204;8.844;2024-03-06T06:24:23;100332.16;;;5.97;100.00
72570;BME280;60594;50.204;8.844;2024-03-06T06:27:08;100325.75;;;6.01;100.00
72570;BME280;60594;50.204;8.844;2024-03-06T06:29:53;100339.41;;;6.09;100.00
72570;BME280;60594;50.204;8.844;2024-03-06T06:32:40;100338.53;;;6.08;100.00
72570;BME280;60594;50.204;8.844;2024-03-06T06:35:25;100335.88;;;6.08;100.00
72570;BME280;60594;50.204;8.844;2024-03-06T06:38:10;100330.91;;;6.18;100.00
72570;BME280;60594;50.204;8.844;2024-03-06T06:40:55;100334.97;;;6.23;100.00
72570;BME280;60594;50.204;8.844;2024-03-06T06:43:41;100340.16;;;6.25;100.00
72570;BME280;60594;50.204;8.844;2024-03-06T06:46:26;100339.81;;;6.31;100.00
72570;BME280;60594;50.204;8.844;2024-03-06T06:49:11;100343.19;;;6.33;100.00
72570;BME280;60594;50.204;8.844;2024-03-06T06:51:56;100342.47;;;6.31;100.00
72570;BME280;60594;50.204;8.844;2024-03-06T06:54:41;100348.13;;;6.39;100.00
72570;BME280;60594;50.204;8.844;2024-03-06T06:57:26;100356.16;;;6.37;100.00
72570;BME280;60594;50.204;8.844;2024-03-06T07:00:11;100358.72;;;6.39;100.00
72570;BME280;60594;50.204;8.844;2024-03-06T07:02:56;100361.06;;;6.43;100.00
72570;BME280;60594;50.204;8.844;2024-03-06T07:05:43;100364.31;;;6.48;100.00
72570;BME280;60594;50.204;8.844;2024-03-06T07:08:27;100364.47;;;6.45;100.00
72570;BME280;60594;50.204;8.844;2024-03-06T07:11:12;100373.06;;;6.49;100.00
72570;BME280;60594;50.204;8.844;2024-03-06T07:13:57;100369.59;;;6.48;100.00
72570;BME280;60594;50.204;8.844;2024-03-06T07:16:42;100375.84;;;6.47;100.00
72570;BME280;60594;50.204;8.844;2024-03-06T07:19:28;100375.84;;;6.47;100.00
72570;BME280;60594;50.204;8.844;2024-03-06T07:22:14;100384.44;;;6.51;100.00
72570;BME280;60594;50.204;8.844;2024-03-06T07:25:00;100376.75;;;6.46;100.00
72570;BME280;60594;50.204;8.844;2024-03-06T07:27:46;100383.78;;;6.47;100.00
72570;BME280;60594;50.204;8.844;2024-03-06T07:30:31;100391.44;;;6.52;100.00
72570;BME280;60594;50.204;8.844;2024-03-06T07:33:16;100388.59;;;6.55;100.00
72570;BME280;60594;50.204;8.844;2024-03-06T07:36:00;100398.06;;;6.73;100.00
72570;BME280;60594;50.204;8.844;2024-03-06T07:38:46;100416.13;;;6.80;100.00
72570;BME280;60594;50.204;8.844;2024-03-06T07:41:31;100414.91;;;6.86;100.00
72570;BME280;60594;50.204;8.844;2024-03-06T07:44:19;100414.81;;;6.73;100.00
72570;BME280;60594;50.204;8.844;2024-03-06T07:47:04;100415.28;;;6.80;100.00
72570;BME280;60594;50.204;8.844;2024-03-06T07:49:49;100423.50;;;6.61;100.00
72570;BME280;60594;50.204;8.844;2024-03-06T07:52:35;100420.84;;;6.47;100.00
72570;BME280;60594;50.204;8.844;2024-03-06T07:55:20;100428.69;;;6.63;100.00
72570;BME280;60594;50.204;8.844;2024-03-06T07:58:06;100422.47;;;6.78;100.00
72570;BME280;60594;50.204;8.844;2024-03-06T08:00:52;100440.16;;;6.91;100.00
72570;BME280;60594;50.204;8.844;2024-03-06T08:03:39;100440.94;;;6.93;100.00
72570;BME280;60594;50.204;8.844;2024-03-06T08:06:25;100437.22;;;6.96;100.00
72570;BME280;60594;50.204;8.844;2024-03-06T08:09:11;100443.22;;;6.99;100.00
72570;BME280;60594;50.204;8.844;2024-03-06T08:11:56;100446.69;;;7.00;100.00
72570;BME280;60594;50.204;8.844;2024-03-06T08:14:40;100448.22;;;7.04;100.00
72570;BME280;60594;50.204;8.844;2024-03-06T08:17:25;100444.63;;;7.05;100.00
72570;BME280;60594;50.204;8.844;2024-03-06T08:20:11;100452.00;;;7.14;100.00
72570;BME280;60594;50.204;8.844;2024-03-06T08:22:56;100449.34;;;7.14;100.00
72570;BME280;60594;50.204;8.844;2024-03-06T08:25:41;100452.97;;;7.13;100.00
72570;BME280;60594;50.204;8.844;2024-03-06T08:28:26;100457.47;;;7.11;100.00
72570;BME280;60594;50.204;8.844;2024-03-06T08:31:11;100454.66;;;7.14;100.00
72570;BME280;60594;50.204;8.844;2024-03-06T08:33:56;100456.16;;;7.18;100.00
72570;BME280;60594;50.204;8.844;2024-03-06T08:36:41;100451.13;;;7.28;100.00
72570;BME280;60594;50.204;8.844;2024-03-06T08:39:26;100450.00;;;7.32;100.00
72570;BME280;60594;50.204;8.844;2024-03-06T08:42:11;100464.66;;;7.37;100.00
72570;BME280;60594;50.204;8.844;2024-03-06T08:44:57;100466.84;;;7.45;100.00
72570;BME280;60594;50.204;8.844;2024-03-06T08:47:46;100461.81;;;7.54;100.00
72570;BME280;60594;50.204;8.844;2024-03-06T08:50:32;100471.56;;;7.54;100.00
72570;BME280;60594;50.204;8.844;2024-03-06T08:53:16;100474.09;;;7.55;100.00
72570;BME280;60594;50.204;8.844;2024-03-06T08:56:01;100479.78;;;7.63;100.00
72570;BME280;60594;50.204;8.844;2024-03-06T08:58:47;100481.09;;;7.70;100.00
72570;BME280;60594;50.204;8.844;2024-03-06T09:01:31;100477.50;;;7.71;100.00
72570;BME280;60594;50.204;8.844;2024-03-06T09:04:16;100490.53;;;7.74;100.00
72570;BME280;60594;50.204;8.844;2024-03-06T09:07:01;100492.72;;;7.82;100.00
72570;BME280;60594;50.204;8.844;2024-03-06T09:09:46;100492.63;;;7.83;100.00
72570;BME280;60594;50.204;8.844;2024-03-06T09:12:31;100498.41;;;7.76;100.00
72570;BME280;60594;50.204;8.844;2024-03-06T09:15:16;100493.59;;;7.82;100.00
72570;BME280;60594;50.204;8.844;2024-03-06T09:18:02;100495.91;;;7.87;100.00
72570;BME280;60594;50.204;8.844;2024-03-06T09:20:47;100490.13;;;7.94;100.00
72570;BME280;60594;50.204;8.844;2024-03-06T09:23:32;100487.81;;;8.02;100.00
72570;BME280;60594;50.204;8.844;2024-03-06T09:26:17;100500.81;;;8.07;100.00
72570;BME280;60594;50.204;8.844;2024-03-06T09:29:02;100486.56;;;8.08;100.00
72570;BME280;60594;50.204;8.844;2024-03-06T09:31:47;100498.78;;;8.10;100.00
72570;BME280;60594;50.204;8.844;2024-03-06T09:34:33;100498.00;;;7.96;100.00
72570;BME280;60594;50.204;8.844;2024-03-06T09:37:18;100506.13;;;8.07;100.00
72570;BME280;60594;50.204;8.844;2024-03-06T09:40:04;100502.31;;;8.11;100.00
72570;BME280;60594;50.204;8.844;2024-03-06T09:42:50;100499.66;;;8.11;100.00
72570;BME280;60594;50.204;8.844;2024-03-06T09:45:35;100497.72;;;8.13;100.00
72570;BME280;60594;50.204;8.844;2024-03-06T09:48:21;100494.88;;;8.16;100.00
72570;BME280;60594;50.204;8.844;2024-03-06T09:51:06;100492.03;;;8.19;100.00
72570;BME280;60594;50.204;8.844;2024-03-06T09:53:51;100494.19;;;8.26;100.00
72570;BME280;60594;50.204;8.844;2024-03-06T09:56:37;100495.00;;;8.41;100.00
72570;BME280;60594;50.204;8.844;2024-03-06T09:59:22;100493.41;;;8.38;100.00
72570;BME280;60594;50.204;8.844;2024-03-06T10:05:22;100500.59;;;8.63;100.00
72570;BME280;60594;50.204;8.844;2024-03-06T10:08:07;100496.66;;;8.68;100.00
72570;BME280;60594;50.204;8.844;2024-03-06T10:10:53;100501.69;;;8.73;100.00
72570;BME280;60594;50.204;8.844;2024-03-06T10:13:38;100494.03;;;8.81;100.00
72570;BME280;60594;50.204;8.844;2024-03-06T10:16:23;100495.75;;;8.94;100.00
72570;BME280;60594;50.204;8.844;2024-03-06T10:19:18;100499.03;;;9.10;100.00
72570;BME280;60594;50.204;8.844;2024-03-06T10:22:06;100492.81;;;9.47;100.00
72570;BME280;60594;50.204;8.844;2024-03-06T10:24:56;100499.50;;;9.65;100.00
72570;BME280;60594;50.204;8.844;2024-03-06T10:27:41;100506.66;;;9.65;100.00
72570;BME280;60594;50.204;8.844;2024-03-06T10:30:26;100508.94;;;9.82;100.00
72570;BME280;60594;50.204;8.844;2024-03-06T10:33:12;100497.34;;;10.19;100.00
72570;BME280;60594;50.204;8.844;2024-03-06T10:35:58;100499.44;;;10.26;97.59
72570;BME280;60594;50.204;8.844;2024-03-06T10:38:44;100504.44;;;10.07;99.81
72570;BME280;60594;50.204;8.844;2024-03-06T10:41:32;100498.31;;;10.18;97.95
72570;BME280;60594;50.204;8.844;2024-03-06T10:44:21;100506.06;;;10.21;100.00
72570;BME280;60594;50.204;8.844;2024-03-06T10:47:09;100504.34;;;10.43;100.00
72570;BME280;60594;50.204;8.844;2024-03-06T10:49:55;100503.84;;;10.62;97.21
72570;BME280;60594;50.204;8.844;2024-03-06T10:52:44;100508.41;;;10.95;97.97
72570;BME280;60594;50.204;8.844;2024-03-06T10:55:32;100504.19;;;11.03;94.44
72570;BME280;60594;50.204;8.844;2024-03-06T10:58:20;100509.78;;;11.11;91.28
72570;BME280;60594;50.204;8.844;2024-03-06T11:01:06;100516.19;;;11.09;94.72
72570;BME280;60594;50.204;8.844;2024-03-06T11:03:53;100519.13;;;11.17;94.58
72570;BME280;60594;50.204;8.844;2024-03-06T11:06:38;100518.28;;;11.16;93.13
72570;BME280;60594;50.204;8.844;2024-03-06T11:09:24;100516.69;;;11.14;94.44
72570;BME280;60594;50.204;8.844;2024-03-06T11:12:09;100519.34;;;11.14;94.46
72570;BME280;60594;50.204;8.844;2024-03-06T11:14:55;100518.13;;;11.07;90.65
72570;BME280;60594;50.204;8.844;2024-03-06T11:17:40;100515.41;;;10.74;88.21
72570;BME280;60594;50.204;8.844;2024-03-06T11:20:33;100512.91;;;10.60;89.82
72570;BME280;60594;50.204;8.844;2024-03-06T11:23:18;100523.69;;;10.58;92.15
72570;BME280;60594;50.204;8.844;2024-03-06T11:26:03;100520.50;;;10.53;92.31
72570;BME280;60594;50.204;8.844;2024-03-06T11:28:49;100512.00;;;10.48;89.85
72570;BME280;60594;50.204;8.844;2024-03-06T11:31:36;100514.03;;;10.68;92.44
72570;BME280;60594;50.204;8.844;2024-03-06T11:34:21;100513.97;;;10.92;92.28
72570;BME280;60594;50.204;8.844;2024-03-06T11:37:08;100514.38;;;10.98;90.49
72570;BME280;60594;50.204;8.844;2024-03-06T11:39:59;100509.22;;;10.84;88.72
72570;BME280;60594;50.204;8.844;2024-03-06T11:42:45;100509.19;;;10.73;91.06
72570;BME280;60594;50.204;8.844;2024-03-06T11:45:43;100508.53;;;10.59;88.55
72570;BME280;60594;50.204;8.844;2024-03-06T11:48:28;100514.22;;;10.30;93.13
72570;BME280;60594;50.204;8.844;2024-03-06T11:51:13;100510.44;;;10.46;89.01
72570;BME280;60594;50.204;8.844;2024-03-06T11:53:59;100519.72;;;10.40;93.67
72570;BME280;60594;50.204;8.844;2024-03-06T11:56:45;100519.50;;;10.43;90.59
72570;BME280;60594;50.204;8.844;2024-03-06T11:59:33;100516.56;;;10.35;93.72
72570;BME280;60594;50.204;8.844;2024-03-06T12:02:18;100513.53;;;10.39;92.22
72570;BME280;60594;50.204;8.844;2024-03-06T12:05:04;100523.59;;;10.36;94.56
72570;BME280;60594;50.204;8.844;2024-03-06T12:07:50;100518.03;;;10.39;93.73
72570;BME280;60594;50.204;8.844;2024-03-06T12:10:39;100516.69;;;10.33;94.31
72570;BME280;60594;50.204;8.844;2024-03-06T12:13:24;100526.53;;;10.44;89.79
72570;BME280;60594;50.204;8.844;2024-03-06T12:16:10;100522.41;;;10.40;94.27
72570;BME280;60594;50.204;8.844;2024-03-06T12:18:57;100522.72;;;10.35;88.74
72570;BME280;60594;50.204;8.844;2024-03-06T12:21:42;100522.34;;;10.29;88.80
72570;BME280;60594;50.204;8.844;2024-03-06T12:24:27;100527.94;;;10.13;90.77
72570;BME280;60594;50.204;8.844;2024-03-06T12:27:12;100525.03;;;10.16;92.90
72570;BME280;60594;50.204;8.844;2024-03-06T12:29:58;100527.88;;;10.26;89.04
72570;BME280;60594;50.204;8.844;2024-03-06T12:32:44;100530.81;;;10.34;89.82
72570;BME280;60594;50.204;8.844;2024-03-06T12:35:29;100527.22;;;10.35;87.81
72570;BME280;60594;50.204;8.844;2024-03-06T12:38:15;100526.38;;;10.34;86.34
72570;BME280;60594;50.204;8.844;2024-03-06T12:41:00;100528.06;;;10.35;89.40
72570;BME280;60594;50.204;8.844;2024-03-06T12:43:45;100521.63;;;10.38;90.86
72570;BME280;60594;50.204;8.844;2024-03-06T12:46:29;100529.19;;;10.44;91.80
72570;BME280;60594;50.204;8.844;2024-03-06T12:49:15;100526.84;;;10.39;89.66
72570;BME280;60594;50.204;8.844;2024-03-06T12:51:59;100530.44;;;10.51;91.50
72570;BME280;60594;50.204;8.844;2024-03-06T12:54:45;100529.84;;;10.59;86.42
72570;BME280;60594;50.204;8.844;2024-03-06T12:57:29;100537.16;;;10.68;85.51
72570;BME280;60594;50.204;8.844;2024-03-06T13:00:14;100526.03;;;10.63;85.95
72570;BME280;60594;50.204;8.844;2024-03-06T13:03:03;100531.72;;;10.69;88.35
72570;BME280;60594;50.204;8.844;2024-03-06T13:05:47;100530.91;;;10.80;89.55
72570;BME280;60594;50.204;8.844;2024-03-06T13:08:32;100527.19;;;10.93;89.08
72570;BME280;60594;50.204;8.844;2024-03-06T13:11:17;100527.97;;;11.06;86.63
72570;BME280;60594;50.204;8.844;2024-03-06T13:14:02;100520.94;;;11.05;84.01
72570;BME280;60594;50.204;8.844;2024-03-06T13:16:47;100515.72;;;11.04;82.40
72570;BME280;60594;50.204;8.844;2024-03-06T13:19:32;100527.69;;;10.98;83.84
72570;BME280;60594;50.204;8.844;2024-03-06T13:22:17;100520.50;;;10.88;82.59
72570;BME280;60594;50.204;8.844;2024-03-06T13:25:02;100520.13;;;10.81;85.96
72570;BME280;60594;50.204;8.844;2024-03-06T13:27:47;100522.19;;;10.78;86.92
72570;BME280;60594;50.204;8.844;2024-03-06T13:30:31;100522.19;;;10.78;86.64
72570;BME280;60594;50.204;8.844;2024-03-06T13:33:16;100520.50;;;10.88;84.68
72570;BME280;60594;50.204;8.844;2024-03-06T13:36:01;100528.91;;;10.94;84.36
72570;BME280;60594;50.204;8.844;2024-03-06T13:38:47;100527.56;;;10.89;84.80
72570;BME280;60594;50.204;8.844;2024-03-06T13:41:32;100521.72;;;10.84;86.19
72570;BME280;60594;50.204;8.844;2024-03-06T13:44:17;100521.81;;;10.82;85.72
72570;BME280;60594;50.204;8.844;2024-03-06T13:47:03;100514.56;;;10.84;84.41
72570;BME280;60594;50.204;8.844;2024-03-06T13:49:48;100520.59;;;10.75;84.06
72570;BME280;60594;50.204;8.844;2024-03-06T13:52:34;100520.75;;;10.85;84.80
72570;BME280;60594;50.204;8.844;2024-03-06T13:55:19;100520.13;;;10.81;83.63
72570;BME280;60594;50.204;8.844;2024-03-06T13:58:03;100524.84;;;10.78;84.50
72570;BME280;60594;50.204;8.844;2024-03-06T14:00:49;100528.72;;;10.74;84.32
72570;BME280;60594;50.204;8.844;2024-03-06T14:03:33;100523.69;;;10.58;88.40
72570;BME280;60594;50.204;8.844;2024-03-06T14:06:19;100525.16;;;10.62;87.01
72570;BME280;60594;50.204;8.844;2024-03-06T14:09:04;100524.41;;;10.60;91.27
72570;BME280;60594;50.204;8.844;2024-03-06T14:11:49;100531.19;;;10.64;88.75
72570;BME280;60594;50.204;8.844;2024-03-06T14:14:35;100525.75;;;10.66;85.30
72570;BME280;60594;50.204;8.844;2024-03-06T14:17:20;100534.84;;;10.63;86.85
72570;BME280;60594;50.204;8.844;2024-03-06T14:20:05;100535.94;;;10.61;86.14
72570;BME280;60594;50.204;8.844;2024-03-06T14:22:50;100540.41;;;10.60;87.41
72570;BME280;60594;50.204;8.844;2024-03-06T14:25:35;100541.47;;;10.58;87.56
72570;BME280;60594;50.204;8.844;2024-03-06T14:28:22;100537.84;;;10.59;87.07